PHP Weather

Conditions Météo Internationales

Rapport météo courant pour Montreal / Dorval International, Que, Canada:

Voici le bulletin pour Montreal / Dorval International, Que, Canada. Le bulletin a été fait il y a 17 minutes , à 22:15 UTC. Le vent soufflait à la vitesse de 4.1 mètres par seconde (9.2 miles par heure) de Nord-ouest (310°). La température était de 17 °C (63 °F), avec un point de rosée à 13 °C (55 °F). La pression atmosphérique était de 1011 hPa (29.86 inHg). L'humidité relative était de 77.3%. Il y avait 1 à 2/8è de nébulosité à une hauteur de 1372 mètres (4500 pieds), 5 à 7/8è de nébulosité à une hauteur de 2743 mètres (9000 pieds), et 5 à 7/8è de nébulosité à une hauteur de 4877 mètres (16000 pieds). La visibilité globale était de 48.3 kilomètres (30.0 miles).

Code METAR : CYUL 252215Z 31008KT 30SM FEW045 BKN090 BKN160 17/13 A2986 RMK CF1AC5AC2 CF TR SLP115 DENSITY ALT 500FT